South St. Paul, MN

9:10 PM CDT on July 27, 2017 (GMT -0500)
South Saint Paul Municipal-Fleming

Weather History for KSGS - November, 2013

Change the Weather History Date:

Friday, November 29, 2013

  Actual Average (KSTP) Record (KSTP)
Temperature  
Mean Temperature 24 °F -  
Max Temperature 35 °F 35 °F 61 °F (1998)
Min Temperature 13 °F 22 °F 10 °F (2007)
Degree Days  
Heating Degree Days 41    
Moisture  
Dew Point 16 °F    
Average Humidity 67    
Maximum Humidity 84    
Minimum Humidity 48    
Precipitation  
Precipitation 0.00 in - - ()
Sea Level Pressure  
Sea Level Pressure 30.38 in    
Wind  
Wind Speed - (North)    
Max Wind Speed -    
Max Gust Speed -    
Visibility 10 miles    
Events      
Averages and records for this station are not official NWS values.
T = Trace of Precipitation, MM = Missing Value Source: NWS Daily Summary

Daily Weather History Graph

Daily Weather History Graph

Search for Another Location

Airport or City:

Trip Planner

Search our weather history database for the weather conditions in past years. The results will help you decide how hot, cold, wet, or windy it might be!

Date:

Astronomy

Nov. 29, 2013 Rise Set
Actual Time 7:27 AM CST 4:33 PM CST
Civil Twilight 6:54 AM CST 5:06 PM CST
Nautical Twilight 6:18 AM CST 5:42 PM CST
Astronomical Twilight 5:43 AM CST 6:17 PM CST
Moon 3:25 AM CST (11/29) 2:25 PM CST (11/29)
Length of Visible Light 10h 11m
Length of Day
9h 05m
Waning Crescent, 14% of the Moon is Illuminated
Nov 29
Waning Crescent
Dec 2
New
Dec 9
First Quarter
Dec 17
Full
Dec 25
Last Quarter

Hourly Weather History & Observations

Time (CST) Temp. Dew Point Humidity Pressure Visibility Wind Dir Wind Speed Gust Speed Precip Events Conditions
12:12 AM 15.8 °F 10.2 °F 79% 30.51 in 10.0 mi North - - N/A   Clear
12:32 AM 15.4 °F 9.9 °F 79% 30.51 in 10.0 mi North - - N/A   Clear
12:52 AM 15.4 °F 10.2 °F 80% 30.51 in 10.0 mi North - - N/A   Clear
1:12 AM 15.3 °F 9.9 °F 79% 30.50 in 10.0 mi North - - N/A   Clear
1:32 AM 14.9 °F 9.5 °F 79% 30.51 in 10.0 mi North - - N/A   Clear
1:52 AM 14.7 °F 9.5 °F 80% 30.51 in 10.0 mi North - - N/A   Clear
2:12 AM 14.7 °F 9.5 °F 80% 30.51 in 10.0 mi North - - N/A   Clear
2:32 AM 14.5 °F 9.5 °F 80% 30.51 in 10.0 mi North - - N/A   Clear
2:52 AM 14.0 °F 9.3 °F 82% 30.51 in 10.0 mi North - - N/A   Clear
3:12 AM 14.0 °F 8.8 °F 80% 30.51 in 10.0 mi North - - N/A   Clear
3:32 AM 14.0 °F 8.6 °F 79% 30.50 in 10.0 mi North - - N/A   Clear
3:52 AM 13.5 °F 8.8 °F 82% 30.51 in 10.0 mi North - - N/A   Clear
4:12 AM 14.4 °F 9.3 °F 80% 30.50 in 10.0 mi North - - N/A   Clear
4:32 AM 14.9 °F 10.4 °F 82% 30.50 in 10.0 mi North - - N/A   Clear
4:52 AM 17.2 °F 13.1 °F 84% 30.51 in 10.0 mi North - - N/A   Clear
5:12 AM 17.4 °F 13.1 °F 83% 30.51 in 10.0 mi North - - N/A   Clear
5:32 AM 17.6 °F 13.5 °F 84% 30.50 in 10.0 mi North - - N/A   Clear
5:52 AM 18.0 °F 13.6 °F 83% 30.51 in 10.0 mi North - - N/A   Clear
6:12 AM 18.1 °F 14.2 °F 84% 30.50 in 10.0 mi North - - N/A   Clear
6:32 AM 18.1 °F 14.0 °F 84% 30.50 in 10.0 mi North - - N/A   Clear
6:52 AM 18.3 °F 14.2 °F 84% 30.50 in 10.0 mi North - - N/A   Clear
7:12 AM 18.7 °F 14.5 °F 84% 30.50 in 10.0 mi North - - N/A   Clear
7:32 AM 19.0 °F 14.4 °F 82% 30.50 in 10.0 mi North - - N/A   Clear
7:52 AM 19.4 °F 14.5 °F 81% 30.50 in 10.0 mi North - - N/A   Clear
8:12 AM 20.1 °F 14.9 °F 80% 30.50 in 10.0 mi North - - N/A   Clear
8:32 AM 20.7 °F 15.1 °F 79% 30.50 in 10.0 mi North - - N/A   Clear
8:52 AM 21.6 °F 15.6 °F 78% 30.49 in 10.0 mi North - - N/A   Clear
9:12 AM 22.1 °F 15.8 °F 77% 30.49 in 10.0 mi North - - N/A   Clear
9:32 AM 23.0 °F 16.3 °F 76% 30.49 in 10.0 mi North - - N/A   Clear
9:52 AM 23.9 °F 16.7 °F 74% 30.49 in 10.0 mi North - - N/A   Clear
10:12 AM 24.6 °F 16.9 °F 72% 30.49 in 10.0 mi North - - N/A   Clear
10:32 AM 25.7 °F 17.1 °F 70% 30.48 in 10.0 mi North - - N/A   Clear
10:52 AM 26.8 °F 17.6 °F 68% 30.47 in 10.0 mi North - - N/A   Clear
11:12 AM 27.7 °F 17.4 °F 65% 30.46 in 10.0 mi North - - N/A   Clear
11:32 AM 29.3 °F 17.8 °F 62% 30.44 in 10.0 mi North - - N/A   Clear
11:52 AM 30.6 °F 17.6 °F 59% 30.43 in 10.0 mi North - - N/A   Clear
12:12 PM 31.3 °F 17.4 °F 57% 30.41 in 10.0 mi North - - N/A   Clear
12:32 PM 33.3 °F 15.8 °F 49% 30.40 in 10.0 mi North - - N/A   Clear
12:52 PM 33.3 °F 16.0 °F 49% 30.38 in 10.0 mi North - - N/A   Clear
1:12 PM 33.8 °F 16.3 °F 49% 30.37 in 10.0 mi North - - N/A   Clear
1:32 PM 34.2 °F 16.5 °F 49% 30.35 in 10.0 mi North - - N/A   Clear
1:52 PM 34.2 °F 16.9 °F 49% 30.34 in 10.0 mi North - - N/A   Clear
2:12 PM 34.2 °F 17.2 °F 50% 30.33 in 10.0 mi North - - N/A   Clear
2:32 PM 35.4 °F 17.6 °F 48% 30.31 in 10.0 mi North - - N/A   Clear
2:52 PM 35.6 °F 17.4 °F 48% 30.30 in 10.0 mi North - - N/A   Clear
3:12 PM 35.4 °F 17.4 °F 48% 30.29 in 10.0 mi North - - N/A   Clear
3:32 PM 34.7 °F 17.4 °F 49% 30.29 in 10.0 mi North - - N/A   Clear
3:52 PM 34.3 °F 17.6 °F 50% 30.29 in 10.0 mi North - - N/A   Clear
4:12 PM 34.0 °F 18.1 °F 52% 30.28 in 10.0 mi North - - N/A   Clear
4:32 PM 34.3 °F 18.5 °F 52% 30.27 in 10.0 mi North - - N/A   Mostly Cloudy
4:52 PM 33.8 °F 18.3 °F 53% 30.26 in 10.0 mi North - - N/A   Mostly Cloudy
5:12 PM 33.4 °F 18.3 °F 54% 30.26 in 10.0 mi North - - N/A   Clear
5:32 PM 33.1 °F 18.5 °F 55% 30.25 in 10.0 mi North - - N/A   Clear
5:52 PM 32.7 °F 18.5 °F 56% 30.24 in 10.0 mi North - - N/A   Clear
6:12 PM 32.0 °F 18.3 °F 57% 30.24 in 10.0 mi North - - N/A   Clear
6:32 PM 32.0 °F 19.0 °F 59% 30.23 in 10.0 mi North - - N/A   Clear
6:52 PM 32.0 °F 19.0 °F 59% 30.23 in 10.0 mi North - - N/A   Clear
7:12 PM 32.0 °F 19.4 °F 60% 30.23 in 10.0 mi North - - N/A   Clear
7:32 PM 31.8 °F 20.1 °F 62% 30.23 in 10.0 mi North - - N/A   Scattered Clouds
7:52 PM 31.5 °F 20.5 °F 64% 30.22 in 10.0 mi North - - N/A   Scattered Clouds
8:12 PM 32.0 °F 21.0 °F 64% 30.21 in 10.0 mi North - - N/A   Mostly Cloudy
8:32 PM 32.0 °F 21.2 °F 64% 30.20 in 10.0 mi North - - N/A   Overcast
8:52 PM 32.0 °F 21.2 °F 64% 30.19 in 10.0 mi North - - N/A   Overcast
9:12 PM 32.0 °F 21.6 °F 65% 30.19 in 10.0 mi North - - N/A   Overcast
9:32 PM 32.9 °F 21.9 °F 64% 30.19 in 10.0 mi North - - N/A   Overcast
9:52 PM 33.3 °F 21.7 °F 63% 30.19 in 10.0 mi North - - N/A   Overcast
10:12 PM 33.4 °F 21.7 °F 62% 30.18 in 10.0 mi North - - N/A   Overcast
10:32 PM 33.8 °F 21.6 °F 61% 30.17 in 10.0 mi North - - N/A   Overcast
10:52 PM 33.8 °F 21.6 °F 61% 30.17 in 10.0 mi North - - N/A   Overcast
11:12 PM 33.4 °F 21.6 °F 62% 30.17 in 10.0 mi North - - N/A   Overcast
11:32 PM 33.1 °F 21.7 °F 63% 30.16 in 10.0 mi North - - N/A   Mostly Cloudy
11:52 PM 32.5 °F 21.7 °F 64% 30.15 in 10.0 mi North - - N/A   Clear